createdAt,value
2022-11-02T00:01:58.120Z,37.38
2022-11-02T00:04:24.930Z,39.58
2022-11-02T00:06:51.570Z,34.42
2022-11-02T00:09:18.170Z,34.00
2022-11-02T00:11:44.767Z,32.60
2022-11-02T00:14:11.320Z,33.63
2022-11-02T00:16:38.601Z,30.60
2022-11-02T00:19:05.467Z,28.48
2022-11-02T00:21:32.101Z,26.05
2022-11-02T00:23:59.011Z,26.42
2022-11-02T00:26:26.344Z,28.08
2022-11-02T00:28:53.502Z,30.20
2022-11-02T00:31:20.623Z,27.55
2022-11-02T00:33:47.387Z,30.45
2022-11-02T00:36:14.025Z,27.52
2022-11-02T00:38:40.689Z,31.80
2022-11-02T00:41:07.376Z,35.95
2022-11-02T00:43:33.965Z,32.88
2022-11-02T00:46:01.559Z,35.75
2022-11-02T00:48:28.511Z,24.00
2022-11-02T00:50:55.419Z,26.52
2022-11-02T00:53:22.006Z,22.08
2022-11-02T00:55:48.625Z,28.60
2022-11-02T00:58:15.232Z,26.23
2022-11-02T01:00:41.966Z,31.35
2022-11-02T01:03:08.728Z,31.77
2022-11-02T01:05:35.287Z,35.50
2022-11-02T01:08:02.176Z,30.42
2022-11-02T01:10:28.983Z,38.38
2022-11-02T01:12:55.733Z,29.52
2022-11-02T01:15:22.417Z,24.85
2022-11-02T01:17:48.984Z,27.02
2022-11-02T01:20:15.531Z,30.02
2022-11-02T01:22:42.166Z,26.02
2022-11-02T01:25:09.234Z,25.95
2022-11-02T01:27:35.803Z,26.50
2022-11-02T01:30:04.233Z,21.88
2022-11-02T01:32:30.908Z,23.95
2022-11-02T01:34:57.601Z,26.52
2022-11-02T01:37:24.344Z,31.58
2022-11-02T01:39:50.927Z,27.63
2022-11-02T01:42:21.794Z,35.28
2022-11-02T01:44:48.447Z,26.38
2022-11-02T01:47:25.522Z,26.55
2022-11-02T01:49:56.257Z,34.70
2022-11-02T01:52:27.329Z,32.78
2022-11-02T01:55:07.103Z,33.47
2022-11-02T01:57:33.980Z,27.00
2022-11-02T02:00:05.811Z,32.22
2022-11-02T02:02:32.709Z,32.25
2022-11-02T02:05:09.755Z,29.55
2022-11-02T02:07:38.226Z,27.25
2022-11-02T02:10:05.703Z,30.25
2022-11-02T02:12:32.387Z,28.35
2022-11-02T02:14:59.428Z,29.17
2022-11-02T02:17:32.337Z,29.58
2022-11-02T02:20:02.107Z,32.05
2022-11-02T02:22:50.592Z,46.33
2022-11-02T02:25:51.135Z,31.92
2022-11-02T02:28:33.046Z,40.97
2022-11-02T02:31:06.212Z,29.55
2022-11-02T02:33:39.214Z,40.45
2022-11-02T02:36:10.606Z,48.92
2022-11-02T02:39:14.509Z,42.42
2022-11-02T02:41:47.490Z,39.95
2022-11-02T02:44:19.773Z,56.65
2022-11-02T02:46:57.033Z,36.25
2022-11-02T02:49:28.358Z,45.30
2022-11-02T02:51:56.013Z,44.67
2022-11-02T02:54:25.400Z,42.33
2022-11-02T02:56:56.321Z,44.28
2022-11-02T02:59:34.363Z,45.88
2022-11-02T03:02:01.134Z,43.22
2022-11-02T03:04:27.793Z,37.90
2022-11-02T03:06:56.264Z,51.00
2022-11-02T03:09:40.088Z,49.20
2022-11-02T03:12:25.845Z,58.63
2022-11-02T03:14:55.374Z,52.60
2022-11-02T03:17:36.690Z,51.15
2022-11-02T03:20:08.773Z,53.15
2022-11-02T03:23:09.358Z,67.55
2022-11-02T03:25:56.331Z,66.20
2022-11-02T03:28:36.037Z,80.68
2022-11-02T03:31:44.566Z,69.65
2022-11-02T03:34:24.843Z,54.13
2022-11-02T03:36:54.938Z,42.50
2022-11-02T03:39:35.597Z,38.33
2022-11-02T03:42:02.413Z,36.83
2022-11-02T03:44:29.051Z,30.60
2022-11-02T03:46:58.765Z,32.75
2022-11-02T03:49:25.548Z,28.67
2022-11-02T03:51:52.287Z,32.90
2022-11-02T03:54:43.307Z,43.33
2022-11-02T03:57:12.045Z,38.67
2022-11-02T03:59:38.626Z,39.90
2022-11-02T04:02:05.351Z,30.15
2022-11-02T04:04:32.028Z,41.97
2022-11-02T04:06:58.676Z,41.55
2022-11-02T04:09:25.356Z,37.88
2022-11-02T04:12:10.704Z,39.05
2022-11-02T04:17:26.712Z,27.73
2022-11-02T04:19:53.513Z,30.90
2022-11-02T04:22:38.836Z,41.92
2022-11-02T04:25:18.837Z,32.67
2022-11-02T04:27:47.563Z,30.85
2022-11-02T04:30:15.362Z,28.27
2022-11-02T04:33:04.748Z,37.53
2022-11-02T04:35:31.500Z,32.75
2022-11-02T04:38:17.533Z,34.83
2022-11-02T04:40:44.347Z,41.90
2022-11-02T04:43:11.031Z,33.35
2022-11-02T04:45:37.795Z,28.23
2022-11-02T04:48:08.307Z,30.10
2022-11-02T04:50:35.411Z,28.33
2022-11-02T04:53:02.959Z,29.50
2022-11-02T04:55:29.715Z,41.13
2022-11-02T04:57:56.364Z,42.70
2022-11-02T05:00:23.617Z,48.70
2022-11-02T05:02:50.451Z,37.30
2022-11-02T05:05:17.983Z,47.90
2022-11-02T05:07:44.964Z,42.50
2022-11-02T05:10:11.851Z,45.88
2022-11-02T05:12:38.499Z,61.65
2022-11-02T05:15:05.733Z,32.03
2022-11-02T05:17:32.308Z,48.00
2022-11-02T05:19:59.036Z,42.13
2022-11-02T05:22:25.632Z,43.28
2022-11-02T05:24:52.268Z,33.47
2022-11-02T05:27:18.932Z,46.03
2022-11-02T05:29:45.514Z,43.67
2022-11-02T05:32:12.290Z,35.50
2022-11-02T05:34:38.869Z,33.80
2022-11-02T05:37:05.501Z,36.55
2022-11-02T05:39:32.272Z,28.73
2022-11-02T05:41:58.868Z,33.97
2022-11-02T05:44:25.502Z,43.20
2022-11-02T05:46:52.067Z,40.20
2022-11-02T05:49:18.671Z,28.27
2022-11-02T05:51:45.396Z,27.15
2022-11-02T05:54:12.070Z,28.33
2022-11-02T05:56:38.824Z,32.88
2022-11-02T05:59:05.449Z,30.00
2022-11-02T06:01:32.274Z,27.25
2022-11-02T06:03:59.017Z,78.60
2022-11-02T06:06:25.661Z,59.85
2022-11-02T06:08:52.278Z,45.25
2022-11-02T06:11:19.020Z,110.32
2022-11-02T06:13:49.414Z,243.75
2022-11-02T06:16:20.110Z,32.65
2022-11-02T06:18:49.435Z,40.58
2022-11-02T06:21:15.999Z,53.13
2022-11-02T06:23:43.275Z,84.80
2022-11-02T06:26:10.157Z,50.08
2022-11-02T06:28:36.796Z,73.78
2022-11-02T06:31:03.375Z,146.23
2022-11-02T06:33:30.065Z,40.20
2022-11-02T06:35:57.357Z,66.35
2022-11-02T06:38:23.961Z,67.88
2022-11-02T06:41:00.503Z,53.08
2022-11-02T06:43:27.070Z,111.35
2022-11-02T06:45:57.335Z,104.70
2022-11-02T06:48:26.616Z,105.07
2022-11-02T06:50:57.680Z,96.80
2022-11-02T06:53:24.719Z,117.10
2022-11-02T06:55:58.124Z,84.50
2022-11-02T06:58:25.266Z,175.93
2022-11-02T07:00:57.568Z,207.20
2022-11-02T07:03:24.198Z,101.60
2022-11-02T07:05:52.223Z,167.48
2022-11-02T07:08:19.270Z,90.07
2022-11-02T07:10:45.975Z,87.07
2022-11-02T07:13:12.775Z,246.75
2022-11-02T07:15:39.880Z,148.60
2022-11-02T07:18:06.879Z,130.55
2022-11-02T07:20:33.637Z,76.75
2022-11-02T07:23:00.829Z,129.00
2022-11-02T07:25:28.662Z,133.20
2022-11-02T07:27:55.810Z,131.30
2022-11-02T07:30:22.649Z,76.43
2022-11-02T07:32:49.616Z,88.78
2022-11-02T07:35:17.545Z,88.60
2022-11-02T07:37:44.312Z,42.42
2022-11-02T07:40:12.157Z,96.45
2022-11-02T07:42:44.700Z,54.47
2022-11-02T07:45:11.911Z,58.80
2022-11-02T07:47:43.661Z,45.63
2022-11-02T07:50:10.217Z,49.90
2022-11-02T07:52:44.102Z,34.35
2022-11-02T07:55:10.908Z,34.15
2022-11-02T07:57:37.602Z,42.72
2022-11-02T08:00:04.993Z,34.50
2022-11-02T08:02:31.815Z,25.80
2022-11-02T08:04:58.462Z,26.77
2022-11-02T08:07:25.114Z,30.58
2022-11-02T08:09:51.754Z,28.77
2022-11-02T08:12:18.496Z,34.60
2022-11-02T08:14:45.208Z,38.00
2022-11-02T08:17:11.829Z,25.65
2022-11-02T08:19:38.456Z,27.67
2022-11-02T08:22:05.141Z,28.17
2022-11-02T08:24:31.695Z,24.33
2022-11-02T08:26:58.342Z,25.25
2022-11-02T08:29:24.928Z,24.20
2022-11-02T08:31:51.703Z,24.38
2022-11-02T08:34:18.294Z,36.40
2022-11-02T08:36:44.940Z,54.80
2022-11-02T08:39:17.489Z,43.17
2022-11-02T08:41:45.426Z,111.03
2022-11-02T08:44:12.197Z,54.63
2022-11-02T08:46:38.776Z,65.55
2022-11-02T08:49:05.410Z,39.13
2022-11-02T08:51:32.041Z,27.73
2022-11-02T08:53:58.606Z,28.23
2022-11-02T08:56:25.278Z,28.30
2022-11-02T08:58:51.859Z,24.60
2022-11-02T09:01:18.546Z,28.58
2022-11-02T09:03:45.239Z,31.05
2022-11-02T09:06:11.868Z,25.25
2022-11-02T09:08:38.469Z,25.20
2022-11-02T09:11:05.290Z,26.17
2022-11-02T09:13:31.942Z,26.83
2022-11-02T09:15:59.314Z,23.83
2022-11-02T09:18:26.043Z,22.42
2022-11-02T09:20:52.721Z,106.45
2022-11-02T09:23:20.475Z,38.95
2022-11-02T09:25:47.358Z,20.80
2022-11-02T09:28:15.652Z,21.63
2022-11-02T09:30:42.387Z,27.50
2022-11-02T09:33:09.215Z,31.65
2022-11-02T09:35:41.188Z,25.63
2022-11-02T09:38:07.822Z,72.97
2022-11-02T09:41:02.442Z,44.60
2022-11-02T09:44:07.730Z,23.17
2022-11-02T09:46:40.292Z,17.83
2022-11-02T09:49:17.590Z,19.73
2022-11-02T09:51:55.284Z,18.80
2022-11-02T09:54:29.391Z,20.55
2022-11-02T09:56:58.374Z,20.90
2022-11-02T09:59:25.971Z,19.70
2022-11-02T10:02:16.790Z,23.38
2022-11-02T10:05:05.023Z,32.92
2022-11-02T10:07:49.857Z,75.53
2022-11-02T10:10:22.942Z,25.67
2022-11-02T10:13:12.139Z,20.67
2022-11-02T10:15:45.257Z,20.85
2022-11-02T10:18:15.065Z,20.15
2022-11-02T10:20:44.354Z,18.92
2022-11-02T10:23:23.221Z,20.23
2022-11-02T10:25:49.945Z,35.50
2022-11-02T10:28:21.884Z,28.30
2022-11-02T10:30:48.609Z,22.15
2022-11-02T10:33:18.768Z,20.33
2022-11-02T10:36:21.910Z,21.67
2022-11-02T10:39:16.375Z,19.17
2022-11-02T10:42:01.564Z,16.55
2022-11-02T10:47:18.384Z,19.95
2022-11-02T10:50:17.484Z,16.38
2022-11-02T10:52:45.232Z,15.90
2022-11-02T10:55:19.499Z,15.73
2022-11-02T10:57:46.240Z,18.33
2022-11-02T11:00:26.711Z,16.33
2022-11-02T11:03:04.572Z,17.15
2022-11-02T11:05:32.456Z,19.85
2022-11-02T11:08:00.644Z,14.88
2022-11-02T11:10:27.763Z,13.95
2022-11-02T11:12:55.460Z,12.80
2022-11-02T11:20:59.741Z,12.70
2022-11-02T11:23:26.604Z,10.88
2022-11-02T11:26:08.473Z,10.10
2022-11-02T11:28:41.086Z,8.70
2022-11-02T11:31:12.241Z,7.20
2022-11-02T11:33:55.628Z,10.60
2022-11-02T11:36:28.279Z,8.30
2022-11-02T11:38:57.552Z,10.13
2022-11-02T11:41:27.095Z,9.18
2022-11-02T11:43:53.714Z,12.55
2022-11-02T11:46:21.679Z,11.25
2022-11-02T11:48:56.144Z,11.65
2022-11-02T11:51:30.052Z,11.18
2022-11-02T11:54:24.902Z,11.65
2022-11-02T11:56:52.671Z,13.23
2022-11-02T11:59:41.148Z,11.38
2022-11-02T12:02:24.210Z,11.85
2022-11-02T12:04:51.510Z,12.73
2022-11-02T12:07:57.021Z,13.00
2022-11-02T12:10:52.826Z,13.90
2022-11-02T12:13:49.917Z,14.85
2022-11-02T12:16:16.404Z,12.38
2022-11-02T12:19:12.842Z,16.67
2022-11-02T12:22:06.738Z,15.85
2022-11-02T12:25:02.357Z,16.33
2022-11-02T12:27:52.192Z,12.45
2022-11-02T12:30:20.483Z,12.65
2022-11-02T12:33:06.771Z,12.73
2022-11-02T12:35:44.531Z,13.18
2022-11-02T12:38:23.555Z,13.88
2022-11-02T12:41:32.743Z,15.65
2022-11-02T12:44:31.200Z,13.82
2022-11-02T12:47:03.259Z,12.98
2022-11-02T12:49:38.930Z,13.50
2022-11-02T12:52:27.113Z,10.05
2022-11-02T12:54:56.557Z,14.48
2022-11-02T12:57:24.820Z,11.27
2022-11-02T12:59:56.227Z,10.27
2022-11-02T13:02:37.645Z,9.38
2022-11-02T13:05:08.540Z,11.02
2022-11-02T13:07:42.571Z,10.00
2022-11-02T13:10:22.968Z,8.83
2022-11-02T13:12:51.578Z,10.95
2022-11-02T13:15:19.953Z,10.88
2022-11-02T13:17:54.832Z,12.57
2022-11-02T13:20:28.867Z,14.23
2022-11-02T13:22:57.682Z,16.53
2022-11-02T13:25:35.179Z,12.82
2022-11-02T13:28:06.021Z,13.85
2022-11-02T13:30:32.849Z,14.77
2022-11-02T13:33:05.329Z,14.93
2022-11-02T13:35:36.272Z,15.73
2022-11-02T13:38:09.354Z,12.95
2022-11-02T13:40:45.062Z,15.65
2022-11-02T13:43:36.126Z,14.68
2022-11-02T13:46:02.643Z,14.35
2022-11-02T13:48:38.346Z,15.98
2022-11-02T13:51:08.194Z,16.92
2022-11-02T13:53:37.485Z,16.23
2022-11-02T13:56:08.801Z,15.95
2022-11-02T13:58:46.093Z,15.38
2022-11-02T14:01:12.758Z,16.58
2022-11-02T14:04:02.180Z,12.50
2022-11-02T14:06:29.187Z,14.43
2022-11-02T14:08:57.942Z,13.60
2022-11-02T14:11:27.156Z,14.02
2022-11-02T14:13:53.645Z,12.77
2022-11-02T14:16:58.858Z,15.77
2022-11-02T14:19:32.225Z,16.37
2022-11-02T14:21:58.915Z,13.05
2022-11-02T14:24:34.598Z,13.93
2022-11-02T14:27:02.365Z,15.45
2022-11-02T14:29:47.230Z,15.15
2022-11-02T14:32:37.786Z,14.68
2022-11-02T14:35:25.497Z,12.05
2022-11-02T14:38:04.674Z,16.05
2022-11-02T14:40:53.579Z,17.70
2022-11-02T14:43:40.771Z,14.25
2022-11-02T14:46:41.987Z,11.80
2022-11-02T14:49:22.690Z,14.50
2022-11-02T14:52:13.541Z,11.48
2022-11-02T14:54:47.165Z,9.85
2022-11-02T14:57:32.661Z,10.10
2022-11-02T15:00:00.354Z,9.75
2022-11-02T15:02:40.243Z,10.63
2022-11-02T15:05:31.796Z,13.57
2022-11-02T15:07:59.809Z,11.25
2022-11-02T15:10:32.747Z,12.18
2022-11-02T15:13:21.750Z,12.75
2022-11-02T15:15:51.252Z,12.80
2022-11-02T15:18:30.438Z,14.88
2022-11-02T15:21:12.824Z,12.48
2022-11-02T15:23:59.336Z,9.15
2022-11-02T15:26:29.696Z,12.18
2022-11-02T15:28:59.150Z,11.95
2022-11-02T15:31:26.557Z,12.80
2022-11-02T15:34:02.526Z,15.07
2022-11-02T15:36:33.091Z,14.63
2022-11-02T15:39:02.140Z,10.93
2022-11-02T15:41:44.631Z,13.27
2022-11-02T15:44:33.006Z,15.90
2022-11-02T15:47:11.139Z,11.85
2022-11-02T15:50:17.459Z,12.90
2022-11-02T15:53:21.632Z,13.95
2022-11-02T15:56:08.949Z,17.67
2022-11-02T15:58:57.491Z,18.88
2022-11-02T16:01:27.762Z,15.55
2022-11-02T16:03:58.574Z,26.98
2022-11-02T16:06:43.688Z,16.17
2022-11-02T16:09:30.852Z,13.63
2022-11-02T16:12:16.851Z,13.18
2022-11-02T16:14:44.163Z,19.58
2022-11-02T16:17:23.867Z,11.45
2022-11-02T16:19:50.886Z,13.00
2022-11-02T16:22:22.866Z,12.98
2022-11-02T16:24:49.488Z,17.23
2022-11-02T16:27:16.147Z,14.77
2022-11-02T16:29:42.995Z,12.38
2022-11-02T16:32:10.944Z,11.98
2022-11-02T16:34:37.759Z,12.95
2022-11-02T16:37:09.993Z,17.67
2022-11-02T16:39:38.654Z,17.70
2022-11-02T16:42:12.612Z,16.75
2022-11-02T16:44:39.239Z,13.52
2022-11-02T16:47:11.983Z,19.02
2022-11-02T16:49:53.498Z,31.13
2022-11-02T16:52:28.248Z,15.77
2022-11-02T16:54:54.848Z,13.85
2022-11-02T16:57:31.135Z,22.42
2022-11-02T17:00:01.802Z,20.10
2022-11-02T17:02:37.010Z,17.80
2022-11-02T17:05:06.564Z,15.20
2022-11-02T17:07:36.052Z,16.55
2022-11-02T17:10:03.474Z,19.92
2022-11-02T17:12:42.951Z,18.23
2022-11-02T17:15:23.160Z,19.42
2022-11-02T17:17:49.828Z,14.98
2022-11-02T17:20:21.592Z,17.13
2022-11-02T17:22:52.588Z,17.17
2022-11-02T17:25:29.792Z,18.98
2022-11-02T17:27:57.785Z,14.43
2022-11-02T17:30:30.253Z,16.02
2022-11-02T17:32:57.662Z,16.73
2022-11-02T17:35:27.219Z,13.18
2022-11-02T17:37:54.430Z,12.38
2022-11-02T17:40:22.123Z,17.48
2022-11-02T17:43:01.063Z,19.08
2022-11-02T17:45:33.247Z,15.95
2022-11-02T17:48:01.464Z,14.52
2022-11-02T17:50:29.305Z,15.10
2022-11-02T17:52:57.024Z,15.25
2022-11-02T17:55:26.568Z,18.20
2022-11-02T17:57:53.727Z,20.17
2022-11-02T18:00:20.621Z,26.38
2022-11-02T18:02:52.879Z,19.52
2022-11-02T18:05:27.465Z,25.92
2022-11-02T18:07:54.949Z,27.70
2022-11-02T18:10:23.111Z,21.55
2022-11-02T18:12:51.996Z,26.83
2022-11-02T18:15:20.887Z,31.17
2022-11-02T18:17:48.115Z,26.67
2022-11-02T18:20:15.075Z,16.05
2022-11-02T18:22:41.690Z,18.17
2022-11-02T18:25:10.494Z,20.20
2022-11-02T18:27:37.963Z,28.13
2022-11-02T18:30:05.985Z,24.58
2022-11-02T18:32:32.796Z,19.98
2022-11-02T18:34:59.664Z,19.48
2022-11-02T18:37:26.275Z,18.55
2022-11-02T18:39:52.907Z,18.02
2022-11-02T18:42:35.286Z,18.63
2022-11-02T18:45:02.039Z,18.70
2022-11-02T18:47:28.602Z,21.42
2022-11-02T18:49:55.468Z,25.27
2022-11-02T18:52:22.499Z,24.27
2022-11-02T18:54:49.654Z,19.73
2022-11-02T18:57:16.369Z,16.35
2022-11-02T18:59:43.305Z,19.38
2022-11-02T19:02:10.560Z,15.35
2022-11-02T19:04:37.323Z,16.45
2022-11-02T19:07:22.417Z,22.75
2022-11-02T19:09:49.126Z,19.77
2022-11-02T19:12:18.093Z,14.35
2022-11-02T19:14:46.030Z,15.23
2022-11-02T19:17:13.449Z,15.60
2022-11-02T19:19:41.209Z,13.00
2022-11-02T19:22:08.032Z,16.85
2022-11-02T19:24:34.622Z,17.90
2022-11-02T19:27:01.207Z,14.98
2022-11-02T19:29:27.970Z,17.35
2022-11-02T19:31:54.675Z,15.57
2022-11-02T19:34:21.368Z,16.33
2022-11-02T19:36:47.959Z,16.38
2022-11-02T19:39:14.644Z,25.52
2022-11-02T19:41:41.256Z,15.43
2022-11-02T19:44:07.892Z,19.42
2022-11-02T19:46:34.622Z,16.95
2022-11-02T19:49:01.345Z,20.58
2022-11-02T19:51:31.282Z,18.67
2022-11-02T19:53:59.402Z,24.92
2022-11-02T19:56:27.632Z,22.48
2022-11-02T19:58:54.528Z,23.23
2022-11-02T20:01:23.225Z,22.23
2022-11-02T20:03:50.269Z,24.73
2022-11-02T20:06:21.903Z,36.92
2022-11-02T20:08:55.986Z,36.50
2022-11-02T20:11:23.521Z,15.07
2022-11-02T20:13:50.147Z,25.05
2022-11-02T20:16:18.514Z,22.90
2022-11-02T20:18:46.285Z,22.15
2022-11-02T20:21:16.684Z,18.83
2022-11-02T20:23:43.736Z,18.70
2022-11-02T20:26:12.726Z,20.55
2022-11-02T20:28:41.146Z,30.20
2022-11-02T20:31:28.667Z,21.73
2022-11-02T20:33:55.510Z,28.35
2022-11-02T20:36:22.179Z,21.10
2022-11-02T20:38:49.613Z,21.02
2022-11-02T20:41:17.663Z,19.45
2022-11-02T20:43:45.293Z,13.00
2022-11-02T20:49:13.747Z,17.33
2022-11-02T20:51:48.151Z,24.70
2022-11-02T20:54:14.803Z,22.00
2022-11-02T20:56:41.453Z,13.23
2022-11-02T20:59:08.120Z,17.70
2022-11-02T21:01:35.274Z,14.05
2022-11-02T21:04:02.021Z,14.68
2022-11-02T21:06:28.673Z,12.60
2022-11-02T21:08:55.288Z,15.07
2022-11-02T21:11:40.688Z,26.27
2022-11-02T21:16:34.024Z,28.90
2022-11-02T21:19:00.700Z,25.35
2022-11-02T21:21:27.366Z,20.55
2022-11-02T21:23:55.468Z,30.10
2022-11-02T21:26:22.160Z,21.35
2022-11-02T21:28:48.779Z,22.10
2022-11-02T21:31:17.214Z,23.38
2022-11-02T21:33:44.542Z,20.90
2022-11-02T21:36:11.443Z,28.65
2022-11-02T21:38:38.450Z,17.27
2022-11-02T21:41:06.142Z,15.73
2022-11-02T21:43:34.649Z,36.45
2022-11-02T21:46:01.732Z,34.72
2022-11-02T21:48:33.263Z,25.70
2022-11-02T21:51:09.751Z,19.20
2022-11-02T21:53:41.017Z,17.20
2022-11-02T21:56:09.231Z,16.58
2022-11-02T21:58:35.919Z,20.30
2022-11-02T22:01:25.817Z,12.30
2022-11-02T22:03:52.769Z,14.97
2022-11-02T22:06:20.740Z,28.25
2022-11-02T22:08:47.643Z,19.75
2022-11-02T22:11:21.739Z,20.88
2022-11-02T22:13:50.351Z,19.37
2022-11-02T22:16:18.136Z,18.20
2022-11-02T22:18:45.574Z,19.15
2022-11-02T22:21:12.616Z,20.25
2022-11-02T22:23:39.607Z,17.38
2022-11-02T22:26:07.984Z,17.15
2022-11-02T22:28:36.784Z,18.83
2022-11-02T22:31:17.047Z,12.67
2022-11-02T22:33:44.482Z,12.27
2022-11-02T22:36:13.600Z,10.80
2022-11-02T22:38:51.608Z,14.50
2022-11-02T22:41:19.580Z,18.13
2022-11-02T22:43:46.356Z,19.33
2022-11-02T22:46:14.927Z,28.05
2022-11-02T22:48:41.608Z,20.20
2022-11-02T22:51:08.586Z,20.30
2022-11-02T22:53:35.662Z,21.73
2022-11-02T22:56:12.227Z,19.47
2022-11-02T22:58:43.546Z,21.70
2022-11-02T23:01:18.892Z,23.27
2022-11-02T23:03:46.003Z,14.57
2022-11-02T23:06:12.766Z,21.70
2022-11-02T23:08:41.439Z,33.85
2022-11-02T23:11:24.211Z,26.23
2022-11-02T23:13:56.745Z,14.98
2022-11-02T23:16:42.701Z,15.73
2022-11-02T23:19:31.508Z,17.75
2022-11-02T23:22:21.563Z,18.33
2022-11-02T23:25:07.525Z,14.70
2022-11-02T23:27:55.428Z,27.13
2022-11-02T23:30:41.590Z,22.10
2022-11-02T23:33:08.588Z,19.80
2022-11-02T23:35:54.185Z,19.70
2022-11-02T23:38:54.586Z,15.88
2022-11-02T23:41:21.346Z,26.33
2022-11-02T23:43:48.237Z,22.67
2022-11-02T23:46:15.010Z,23.37
2022-11-02T23:48:42.044Z,25.33
2022-11-02T23:51:28.027Z,22.67
2022-11-02T23:54:13.214Z,21.77
2022-11-02T23:56:45.954Z,19.60
2022-11-02T23:59:16.023Z,21.37
